Time;durP1;ratioP1;P1;durP2;ratioP2;P2;SDS_P1;SDS_P2;PMS_P1;PMS_P2;Temp;Humidity;BMP_temperature;BMP_pressure;BME280_temperature;BME280_humidity;BME280_pressure;Samples;Min_cycle;Max_cycle;Signal;HPM_P1;HPM_P2
2022/01/21 00:01:39;;;;;;;5.25;1.98;;;;;;;-0.57;68.51;102513.13;4986448;28;20429;-53
2022/01/21 00:04:08;;;;;;;6.85;2.22;;;;;;;-0.58;68.58;102516.44;4988710;28;20050;-54
2022/01/21 00:06:38;;;;;;;16.35;2.78;;;;;;;-0.59;69.24;102508.69;4985469;28;20054;-52
2022/01/21 00:09:05;;;;;;;5.20;1.88;;;;;;;-0.60;68.49;102518.00;4980498;28;20050;-53
2022/01/21 00:11:31;;;;;;;7.15;2.25;;;;;;;-0.61;68.52;102531.47;4989259;28;20105;-53
2022/01/21 00:13:59;;;;;;;7.68;2.38;;;;;;;-0.61;68.60;102531.47;4987863;28;20136;-54
2022/01/21 00:16:27;;;;;;;11.73;2.85;;;;;;;-0.61;68.27;102526.38;4989085;28;20058;-52
2022/01/21 00:19:00;;;;;;;5.65;2.33;;;;;;;-0.61;68.05;102528.03;4987048;28;20113;-52
2022/01/21 00:32:36;;;;;;;6.70;2.67;;;;;;;-0.69;68.14;102522.31;4972520;28;20053;-51
2022/01/21 00:35:03;;;;;;;6.20;2.47;;;;;;;-0.69;68.48;102513.03;4987046;28;20104;-50
2022/01/21 00:37:29;;;;;;;12.63;2.85;;;;;;;-0.69;68.37;102512.13;4987296;28;20058;-51
2022/01/21 00:39:59;;;;;;;7.63;2.20;;;;;;;-0.70;68.71;102510.34;4987003;28;20050;-54
2022/01/21 00:43:29;;;;;;;5.03;2.17;;;;;;;-0.70;67.88;102505.25;4984633;28;20050;-54
2022/01/21 00:45:16;;;;;;;12.70;2.92;;;;;;;-0.71;68.55;102513.66;4987935;28;20054;-54
2022/01/21 00:47:43;;;;;;;8.02;2.88;;;;;;;-0.72;68.61;102511.88;4985216;28;20080;-49
2022/01/21 00:50:11;;;;;;;9.27;2.45;;;;;;;-0.72;68.44;102512.75;4987293;28;20104;-51
2022/01/21 00:52:38;;;;;;;7.28;2.63;;;;;;;-0.71;68.81;102508.56;4988037;28;20042;-51
2022/01/21 00:55:08;;;;;;;6.55;2.83;;;;;;;-0.72;68.56;102506.78;4986928;28;20050;-51
2022/01/21 00:57:35;;;;;;;7.30;2.47;;;;;;;-0.75;68.19;102502.31;4983525;28;20115;-52
2022/01/21 01:00:04;;;;;;;7.15;2.60;;;;;;;-0.75;68.49;102511.63;4989700;28;20058;-54
2022/01/21 01:02:31;;;;;;;5.20;2.35;;;;;;;-0.76;68.68;102512.38;4988403;28;20132;-54
2022/01/21 01:04:58;;;;;;;7.78;2.40;;;;;;;-0.76;68.38;102510.72;4987937;28;20046;-54
2022/01/21 01:07:25;;;;;;;8.70;2.45;;;;;;;-0.76;69.05;102509.81;4989486;28;20054;-54
2022/01/21 01:09:55;;;;;;;7.68;2.50;;;;;;;-0.76;68.96;102509.81;4969238;28;20042;-52
2022/01/21 01:13:00;;;;;;;9.05;2.38;;;;;;;-0.78;69.03;102508.06;4983099;28;20050;-53
2022/01/21 01:20:45;;;;;;;5.93;2.17;;;;;;;-0.76;69.29;102494.56;4984785;28;20053;-52
2022/01/21 01:23:26;;;;;;;11.93;3.03;;;;;;;-0.79;68.96;102493.56;4988735;28;20054;-52
2022/01/21 01:28:42;;;;;;;7.45;2.22;;;;;;;-0.85;69.89;102499.78;4974433;28;20053;-51
2022/01/21 01:31:10;;;;;;;4.38;2.10;;;;;;;-0.84;70.26;102506.66;4988572;28;20061;-51
2022/01/21 01:33:40;;;;;;;8.27;3.03;;;;;;;-0.83;70.16;102503.34;4988829;28;20486;-54
2022/01/21 01:36:08;;;;;;;5.40;2.45;;;;;;;-0.86;69.99;102492.91;4988762;28;20050;-54
2022/01/21 01:38:58;;;;;;;5.15;2.50;;;;;;;-0.86;69.77;102493.81;4987085;28;20697;-49
2022/01/21 01:41:29;;;;;;;6.95;3.08;;;;;;;-0.85;69.95;102494.69;4991326;28;20058;-54
2022/01/21 01:49:35;;;;;;;7.82;3.10;;;;;;;-0.90;70.35;102499.41;4971344;28;20105;-53
2022/01/21 01:52:05;;;;;;;7.22;2.97;;;;;;;-0.90;70.28;102489.22;4987978;28;20842;-54
2022/01/21 01:54:34;;;;;;;10.07;2.80;;;;;;;-0.89;70.00;102493.53;4986101;28;20053;-51
2022/01/21 01:57:01;;;;;;;6.75;2.80;;;;;;;-0.90;70.68;102494.31;4985446;28;20081;-55
2022/01/21 01:59:27;;;;;;;9.05;3.65;;;;;;;-0.92;70.17;102489.09;4985609;28;20469;-53
2022/01/21 02:01:59;;;;;;;10.40;3.28;;;;;;;-0.92;70.40;102493.28;4985653;28;20626;-54
2022/01/21 02:04:27;;;;;;;7.43;3.58;;;;;;;-0.92;70.38;102484.00;4990498;28;20088;-55
2022/01/21 02:06:54;;;;;;;11.95;3.95;;;;;;;-0.92;69.99;102489.09;4986401;28;20046;-52
2022/01/21 02:09:22;;;;;;;8.35;3.55;;;;;;;-0.92;69.86;102499.25;4985948;28;20837;-51
2022/01/21 02:11:50;;;;;;;7.90;3.75;;;;;;;-0.95;69.84;102487.97;4989321;28;20457;-53
2022/01/21 02:14:26;;;;;;;8.27;4.78;;;;;;;-0.96;69.58;102497.22;4971921;28;20097;-53
2022/01/21 02:17:16;;;;;;;12.77;4.43;;;;;;;-0.95;70.15;102498.13;4985610;28;20453;-53
2022/01/21 02:22:35;;;;;;;9.68;4.35;;;;;;;-0.96;70.07;102498.88;4978053;28;20481;-52
2022/01/21 02:25:15;;;;;;;11.85;4.95;;;;;;;-0.97;70.70;102505.63;4985610;28;20054;-51
2022/01/21 02:27:44;;;;;;;9.43;4.03;;;;;;;-0.98;70.32;102498.75;4987539;28;20061;-51
2022/01/21 02:30:18;;;;;;;11.65;4.30;;;;;;;-0.97;70.00;102497.09;4969498;28;20046;-52
2022/01/21 02:32:48;;;;;;;12.75;4.15;;;;;;;-0.98;69.76;102506.38;4988888;28;20074;-52
2022/01/21 02:35:16;;;;;;;11.52;4.88;;;;;;;-0.98;70.46;102497.88;4984351;28;20050;-54
2022/01/21 02:37:44;;;;;;;8.55;3.85;;;;;;;-0.98;70.56;102492.78;4989114;28;20046;-55
2022/01/21 02:40:12;;;;;;;13.43;4.57;;;;;;;-0.98;70.19;102492.78;4985017;28;20097;-52
2022/01/21 02:42:40;;;;;;;12.43;3.80;;;;;;;-1.01;70.16;102492.50;4985290;28;20537;-53
2022/01/21 02:45:08;;;;;;;10.38;4.28;;;;;;;-1.02;70.92;102501.78;4986674;28;20066;-53
2022/01/21 02:47:35;;;;;;;9.80;4.03;;;;;;;-1.05;70.32;102494.78;4987026;28;20046;-49
2022/01/21 02:50:03;;;;;;;10.13;4.30;;;;;;;-1.08;70.45;102497.06;4986098;28;20058;-53
2022/01/21 02:52:40;;;;;;;11.90;3.92;;;;;;;-1.08;70.89;102492.00;4987685;28;20754;-54
2022/01/21 02:55:09;;;;;;;6.72;2.63;;;;;;;-1.10;71.04;102493.53;4986963;28;20053;-52
2022/01/21 02:57:35;;;;;;;11.63;3.97;;;;;;;-1.11;71.27;102481.56;4985981;28;20057;-52
2022/01/21 03:00:05;;;;;;;8.15;3.92;;;;;;;-1.11;70.99;102471.41;4985029;28;20812;-53
2022/01/21 03:02:32;;;;;;;6.75;2.58;;;;;;;-1.14;71.75;102471.13;4986761;28;20054;-51
2022/01/21 03:05:07;;;;;;;7.32;4.28;;;;;;;-1.13;71.52;102480.53;4963934;28;20057;-52
2022/01/21 03:07:34;;;;;;;6.32;2.10;;;;;;;-1.13;72.31;102483.09;4986615;28;20046;-53
2022/01/21 03:10:01;;;;;;;11.00;4.05;;;;;;;-1.10;71.66;102482.44;4985420;28;20054;-54
2022/01/21 03:12:28;;;;;;;12.65;5.38;;;;;;;-1.12;71.75;102489.94;4983555;28;20050;-54
2022/01/21 03:14:55;;;;;;;13.23;4.63;;;;;;;-1.09;71.63;102490.22;4984563;28;20054;-52
2022/01/21 03:17:21;;;;;;;15.77;5.65;;;;;;;-1.09;71.17;102480.03;4985683;28;20050;-53
2022/01/21 03:19:48;;;;;;;9.10;4.50;;;;;;;-1.10;71.29;102483.34;4985686;28;20061;-52
2022/01/21 03:22:15;;;;;;;13.43;5.97;;;;;;;-1.09;71.47;102484.22;4986977;28;20129;-52
2022/01/21 03:24:41;;;;;;;11.18;5.50;;;;;;;-1.12;70.97;102482.31;4986858;28;20716;-52
2022/01/21 03:27:08;;;;;;;13.48;6.28;;;;;;;-1.12;71.22;102473.81;4988768;28;20081;-52
2022/01/21 03:29:34;;;;;;;17.73;6.03;;;;;;;-1.13;71.46;102483.09;4991732;28;20104;-53
2022/01/21 03:32:01;;;;;;;14.77;4.82;;;;;;;-1.13;71.98;102477.09;4989701;28;20089;-51
2022/01/21 03:34:28;;;;;;;14.50;6.20;;;;;;;-1.12;71.30;102479.78;4988661;28;20054;-52
2022/01/21 03:36:54;;;;;;;15.13;5.82;;;;;;;-1.11;71.40;102481.56;4987465;28;20050;-52
2022/01/21 03:39:21;;;;;;;13.52;5.80;;;;;;;-1.13;70.92;102478.00;4988913;28;20051;-53
2022/01/21 03:41:48;;;;;;;14.57;6.45;;;;;;;-1.12;70.56;102473.81;4988408;28;20050;-53
2022/01/21 03:44:14;;;;;;;14.35;5.45;;;;;;;-1.14;71.10;102481.31;4991596;28;20054;-56
2022/01/21 03:46:41;;;;;;;18.55;6.53;;;;;;;-1.14;71.04;102483.84;4985783;28;21048;-50
2022/01/21 03:49:09;;;;;;;15.65;6.35;;;;;;;-1.15;70.92;102484.59;4990870;28;20058;-51
2022/01/21 03:51:36;;;;;;;16.45;6.45;;;;;;;-1.16;70.85;102487.91;4991305;28;20113;-53
2022/01/21 03:54:05;;;;;;;13.95;6.72;;;;;;;-1.18;70.75;102485.22;4973148;28;20047;-54
2022/01/21 03:56:32;;;;;;;16.45;6.72;;;;;;;-1.18;71.09;102489.44;4989580;28;20046;-53
2022/01/21 03:58:59;;;;;;;14.25;6.53;;;;;;;-1.19;71.31;102492.72;4989298;28;20046;-52
2022/01/21 04:01:28;;;;;;;13.95;7.88;;;;;;;-1.20;71.25;102490.94;4988046;28;20145;-51
2022/01/21 04:03:55;;;;;;;17.92;6.60;;;;;;;-1.20;71.39;102485.88;4987583;28;20587;-55
2022/01/21 04:06:22;;;;;;;14.63;6.57;;;;;;;-1.21;71.19;102468.84;4988388;28;20518;-54
2022/01/21 04:08:48;;;;;;;18.58;7.55;;;;;;;-1.21;71.57;102468.84;4988419;28;20051;-55
2022/01/21 04:11:15;;;;;;;16.33;7.70;;;;;;;-1.20;71.46;102465.53;4988725;28;20445;-54
2022/01/21 04:13:43;;;;;;;16.63;6.40;;;;;;;-1.19;70.97;102472.38;4987885;28;20141;-54
2022/01/21 04:16:10;;;;;;;16.75;7.50;;;;;;;-1.21;70.96;102466.28;4984213;28;20043;-52
2022/01/21 04:18:36;;;;;;;17.55;7.00;;;;;;;-1.24;71.58;102468.56;4988112;28;20077;-55
2022/01/21 04:21:04;;;;;;;21.00;7.85;;;;;;;-1.26;71.71;102465.88;4988516;28;20482;-52
2022/01/21 04:23:33;;;;;;;;;;;;;;;-1.30;71.45;102474.03;4989241;28;20100;-54
2022/01/21 04:26:00;;;;;;;13.32;5.72;;;;;;;-1.31;71.13;102470.56;4987289;28;19921;-52
2022/01/21 04:28:27;;;;;;;18.75;6.43;;;;;;;-1.30;71.23;102474.03;4988158;28;20120;-54
2022/01/21 04:30:53;;;;;;;14.75;5.97;;;;;;;-1.30;72.01;102468.94;4985607;28;20050;-52
2022/01/21 04:33:21;;;;;;;10.02;3.45;;;;;;;-1.34;71.84;102472.88;4990131;28;20038;-53
2022/01/21 04:35:51;;;;;;;12.38;4.40;;;;;;;-1.31;72.03;102468.03;4988176;28;20101;-53
2022/01/21 04:38:21;;;;;;;14.57;5.47;;;;;;;-1.30;72.10;102469.84;4989724;28;20100;-53
2022/01/21 04:40:56;;;;;;;10.82;4.90;;;;;;;-1.29;72.14;102465.63;4986593;28;20054;-49
2022/01/21 04:48:56;;;;;;;8.02;3.72;;;;;;;-1.25;71.74;102462.56;4977551;28;20086;-51
2022/01/21 04:51:29;;;;;;;14.70;5.68;;;;;;;-1.25;72.18;102460.03;4987478;28;20152;-54
2022/01/21 04:53:57;;;;;;;9.43;4.78;;;;;;;-1.25;72.11;102462.56;4989429;28;20058;-50
2022/01/21 04:56:24;;;;;;;13.50;5.32;;;;;;;-1.25;71.08;102456.63;4986143;28;20450;-52
2022/01/21 04:58:50;;;;;;;11.10;4.60;;;;;;;-1.27;72.22;102447.97;4988748;28;20178;-54
2022/01/21 05:01:17;;;;;;;13.23;5.28;;;;;;;-1.27;71.18;102445.41;4988400;28;20050;-53
2022/01/21 05:03:46;;;;;;;16.95;5.22;;;;;;;-1.28;72.12;102446.19;4991708;28;20626;-49
2022/01/21 05:06:13;;;;;;;13.82;5.57;;;;;;;-1.30;71.04;102448.59;4986246;28;20093;-51
2022/01/21 05:08:46;;;;;;;17.10;6.13;;;;;;;-1.28;71.90;102446.19;4990166;28;20109;-51
2022/01/21 05:11:14;;;;;;;14.95;6.22;;;;;;;-1.27;71.58;102442.88;4987260;28;21541;-50
2022/01/21 05:13:44;;;;;;;11.88;5.65;;;;;;;-1.23;71.90;102439.81;4989313;28;20638;-51
2022/01/21 05:16:35;;;;;;;17.88;6.00;;;;;;;-1.21;71.42;102433.22;4988549;28;20113;-50
2022/01/21 05:19:03;;;;;;;12.43;6.47;;;;;;;-1.17;71.42;102430.19;4964890;28;20603;-56
2022/01/21 05:21:35;;;;;;;19.05;7.15;;;;;;;-1.16;71.86;102421.78;4986272;28;20112;-51
2022/01/21 05:24:02;;;;;;;11.73;5.28;;;;;;;-1.15;71.28;102433.72;4988300;28;20057;-52
2022/01/21 05:26:36;;;;;;;11.43;4.75;;;;;;;-1.14;71.21;102427.91;4984995;28;20088;-55
2022/01/21 05:29:05;;;;;;;12.77;5.53;;;;;;;-1.10;71.26;102431.56;4989728;28;20108;-52
2022/01/21 05:31:32;;;;;;;11.05;5.38;;;;;;;-1.10;71.77;102426.50;4973755;28;20112;-52
2022/01/21 05:33:59;;;;;;;12.85;4.80;;;;;;;-1.10;71.43;102426.50;4986501;28;20047;-52
2022/01/21 05:36:27;;;;;;;12.85;4.63;;;;;;;-1.10;71.76;102427.38;4985074;28;20092;-51
2022/01/21 05:38:54;;;;;;;10.02;4.45;;;;;;;-1.13;71.76;102416.94;4985359;28;20062;-52
2022/01/21 05:41:23;;;;;;;11.10;4.90;;;;;;;-1.14;71.41;102411.72;4984276;28;20050;-52
2022/01/21 05:43:58;;;;;;;8.82;4.55;;;;;;;-1.15;71.42;102413.38;4986650;28;20109;-55
2022/01/21 05:49:15;;;;;;;8.80;4.28;;;;;;;-1.14;71.07;102411.72;4971746;28;20627;-53
2022/01/21 05:51:43;;;;;;;11.52;4.45;;;;;;;-1.15;71.64;102410.84;4988587;28;20132;-51
2022/01/21 05:54:10;;;;;;;14.40;4.80;;;;;;;-1.17;71.64;102418.38;4985209;28;20473;-50
2022/01/21 05:56:38;;;;;;;6.18;3.65;;;;;;;-1.19;71.57;102416.44;4986596;28;20442;-53
2022/01/21 05:59:07;;;;;;;10.70;4.55;;;;;;;-1.20;71.26;102412.09;4985767;28;20141;-54
2022/01/21 06:01:35;;;;;;;9.95;4.30;;;;;;;-1.23;71.49;102409.31;4987943;28;20056;-52
2022/01/21 06:04:02;;;;;;;12.15;4.07;;;;;;;-1.24;71.14;102405.00;4969828;28;20065;-52
2022/01/21 06:06:29;;;;;;;10.45;4.28;;;;;;;-1.25;71.52;102413.41;4986300;28;20046;-55
2022/01/21 06:08:57;;;;;;;11.77;3.65;;;;;;;-1.30;72.07;102411.34;4972302;28;20051;-55
2022/01/21 06:11:26;;;;;;;16.02;4.10;;;;;;;-1.28;72.31;102400.41;4985155;28;20050;-51
2022/01/21 06:13:52;;;;;;;12.15;5.05;;;;;;;-1.26;72.15;102409.03;4985193;28;20082;-56
2022/01/21 06:16:19;;;;;;;9.23;3.35;;;;;;;-1.23;71.39;102417.84;4985301;28;20529;-53
2022/01/21 06:18:46;;;;;;;10.73;4.30;;;;;;;-1.17;71.85;102422.53;4987980;28;20066;-55
2022/01/21 06:21:14;;;;;;;11.68;3.88;;;;;;;-1.13;71.69;102422.03;4983628;28;20467;-52
2022/01/21 06:23:41;;;;;;;10.00;4.20;;;;;;;-1.10;71.50;102424.84;4988397;28;20046;-53
2022/01/21 06:26:08;;;;;;;7.57;3.58;;;;;;;-1.09;71.93;102424.06;4986119;28;20124;-49
2022/01/21 06:28:35;;;;;;;12.40;4.13;;;;;;;-1.06;71.68;102424.34;4985776;28;20097;-54
2022/01/21 06:31:02;;;;;;;14.45;5.07;;;;;;;-1.00;71.46;102428.16;4984176;28;20047;-52
2022/01/21 06:33:29;;;;;;;10.45;4.60;;;;;;;-0.96;71.29;102430.19;4984558;28;20081;-53
2022/01/21 06:35:55;;;;;;;10.73;4.32;;;;;;;-0.96;71.72;102432.72;4983716;28;20116;-55
2022/01/21 06:38:22;;;;;;;9.50;4.30;;;;;;;-0.94;71.60;102433.75;4986514;28;20085;-55
2022/01/21 06:40:50;;;;;;;10.88;4.10;;;;;;;-0.92;71.03;102433.09;4983739;28;20549;-54
2022/01/21 06:43:17;;;;;;;9.68;4.32;;;;;;;-0.91;71.57;102437.44;4991547;28;20058;-54
2022/01/21 06:45:44;;;;;;;10.55;4.25;;;;;;;-0.90;71.26;102438.34;4969277;28;20303;-55
2022/01/21 06:48:11;;;;;;;9.50;3.95;;;;;;;-0.90;71.39;102435.78;4986982;28;20092;-53
2022/01/21 06:50:43;;;;;;;9.10;4.82;;;;;;;-0.90;70.90;102435.78;4984448;28;20046;-55
2022/01/21 06:53:12;;;;;;;;;;;;;;;-0.90;71.38;102443.41;4986924;28;20409;-56
2022/01/21 06:55:39;;;;;;;42.65;18.98;;;;;;;-0.85;71.29;102438.72;4985142;28;19968;-56
2022/01/21 06:58:06;;;;;;;17.58;7.50;;;;;;;-0.84;70.84;102431.19;4988414;28;20046;-55
2022/01/21 07:00:34;;;;;;;14.70;6.30;;;;;;;-0.84;71.10;102431.19;4988894;28;20062;-54
2022/01/21 07:03:01;;;;;;;10.32;4.40;;;;;;;-0.81;71.35;102430.56;4982829;28;20046;-53
2022/01/21 07:05:29;;;;;;;11.05;4.18;;;;;;;-0.81;71.48;102428.91;4990131;28;20054;-54
2022/01/21 07:07:58;;;;;;;12.65;5.18;;;;;;;-0.76;71.33;102423.28;4988427;28;20050;-56
2022/01/21 07:10:27;;;;;;;9.48;4.18;;;;;;;-0.73;71.04;102428.63;4988459;28;20072;-55
2022/01/21 07:12:53;;;;;;;15.15;4.50;;;;;;;-0.70;71.18;102434.00;4984413;28;20053;-52
2022/01/21 07:15:20;;;;;;;7.90;3.95;;;;;;;-0.67;71.12;102436.78;4988031;28;20050;-52
2022/01/21 07:17:52;;;;;;;12.23;3.50;;;;;;;-0.67;71.51;102439.34;4990818;28;20072;-53
2022/01/21 07:20:20;;;;;;;13.60;4.05;;;;;;;-0.63;71.14;102438.81;4993702;28;20047;-54
2022/01/21 07:22:47;;;;;;;10.02;4.18;;;;;;;-0.62;71.12;102445.69;4989395;28;20051;-54
2022/01/21 07:25:14;;;;;;;11.98;4.80;;;;;;;-0.60;70.75;102449.25;4990491;28;20670;-54
2022/01/21 07:27:44;;;;;;;13.82;4.55;;;;;;;-0.57;71.02;102451.16;4986727;28;20108;-54
2022/01/21 07:30:12;;;;;;;11.70;5.07;;;;;;;-0.54;70.81;102452.28;4989029;28;20061;-55
2022/01/21 07:32:41;;;;;;;17.85;5.72;;;;;;;-0.52;71.26;102450.78;4985629;28;20082;-55
2022/01/21 07:35:09;;;;;;;11.95;5.28;;;;;;;-0.49;71.12;102450.13;4991569;28;20090;-55
2022/01/21 07:37:53;;;;;;;21.85;6.28;;;;;;;-0.46;71.05;102454.56;4975235;28;20501;-56
2022/01/21 07:41:15;;;;;;;42.08;9.63;;;;;;;-0.46;71.03;102457.13;4988082;28;20092;-53
2022/01/21 07:43:42;;;;;;;21.70;6.28;;;;;;;-0.46;70.96;102450.38;4980783;28;20038;-55
2022/01/21 07:46:09;;;;;;;14.00;4.40;;;;;;;-0.42;70.93;102461.69;4983917;28;20042;-53
2022/01/21 07:48:36;;;;;;;23.98;7.68;;;;;;;-0.40;71.01;102462.72;4991483;28;20054;-52
2022/01/21 07:51:03;;;;;;;11.63;4.50;;;;;;;-0.38;71.02;102463.72;4985152;28;20062;-53
2022/01/21 07:53:30;;;;;;;45.75;12.05;;;;;;;-0.34;71.30;102465.75;4990581;28;20097;-54
2022/01/21 07:55:57;;;;;;;20.60;6.07;;;;;;;-0.29;70.91;102463.59;4988091;28;20042;-53
2022/01/21 07:58:24;;;;;;;15.20;5.18;;;;;;;-0.26;71.03;102479.13;4987673;28;20097;-52
2022/01/21 08:00:51;;;;;;;12.60;4.38;;;;;;;-0.22;70.96;102485.34;4991177;28;20054;-56
2022/01/21 08:03:18;;;;;;;9.75;3.50;;;;;;;-0.18;71.04;102477.19;4986402;28;20058;-56
2022/01/21 08:05:46;;;;;;;10.95;3.78;;;;;;;-0.15;71.29;102485.06;4986137;28;20486;-52
2022/01/21 08:08:13;;;;;;;8.23;4.22;;;;;;;-0.12;70.51;102472.59;4988701;28;20065;-56
2022/01/21 08:10:39;;;;;;;8.00;3.00;;;;;;;-0.10;70.50;102478.69;4990601;28;20050;-53
2022/01/21 08:13:06;;;;;;;13.57;4.32;;;;;;;-0.07;70.86;102476.38;4984033;28;20050;-56
2022/01/21 08:15:34;;;;;;;11.55;4.80;;;;;;;-0.03;70.82;102491.16;4967314;28;20073;-55
2022/01/21 08:18:01;;;;;;;12.27;4.38;;;;;;;0.00;70.58;102485.44;4986089;28;20049;-56
2022/01/21 08:20:29;;;;;;;11.88;4.05;;;;;;;0.04;70.28;102481.47;4980709;28;20059;-53
2022/01/21 08:22:55;;;;;;;13.57;4.00;;;;;;;0.05;70.87;102494.31;4984321;28;20043;-54
2022/01/21 08:25:22;;;;;;;26.35;8.13;;;;;;;0.10;70.99;102484.50;4982397;28;20593;-55
2022/01/21 08:27:49;;;;;;;47.65;11.38;;;;;;;0.13;70.67;102487.28;4963439;28;20054;-56
2022/01/21 08:30:17;;;;;;;57.17;12.43;;;;;;;0.14;70.97;102485.63;4983165;28;20108;-56
2022/01/21 08:32:46;;;;;;;57.53;13.23;;;;;;;0.17;70.46;102486.75;4981850;28;20055;-56
2022/01/21 08:35:13;;;;;;;43.97;10.52;;;;;;;0.20;70.81;102487.00;4983757;28;20522;-57
2022/01/21 08:37:40;;;;;;;25.85;7.78;;;;;;;0.25;70.95;102480.63;4988685;28;20044;-56
2022/01/21 08:40:07;;;;;;;9.35;4.68;;;;;;;0.29;71.00;102479.19;4980362;28;20046;-56
2022/01/21 08:42:34;;;;;;;16.88;5.60;;;;;;;0.32;70.98;102481.09;4984797;28;20058;-55
2022/01/21 08:45:02;;;;;;;21.92;8.07;;;;;;;0.35;70.96;102479.69;4984557;28;20772;-58
2022/01/21 08:47:28;;;;;;;47.78;12.52;;;;;;;0.39;70.88;102475.69;4984438;28;20081;-58
2022/01/21 08:49:59;;;;;;;70.10;16.55;;;;;;;0.40;71.11;102474.91;4983034;28;20116;-57
2022/01/21 08:52:29;;;;;;;42.53;10.95;;;;;;;0.41;71.07;102471.63;4985572;28;20050;-56
2022/01/21 08:54:56;;;;;;;50.88;12.55;;;;;;;0.44;70.35;102461.63;4983336;28;20450;-53
2022/01/21 08:57:27;;;;;;;41.75;13.05;;;;;;;0.49;70.45;102465.47;4980142;28;20671;-53
2022/01/21 08:59:54;;;;;;;29.15;9.65;;;;;;;0.53;70.61;102465.72;4981608;28;20137;-54
2022/01/21 09:02:20;;;;;;;28.23;9.45;;;;;;;0.55;70.98;102466.69;4983385;28;20046;-57
2022/01/21 09:04:47;;;;;;;26.42;7.55;;;;;;;0.56;71.06;102465.91;4984221;28;20153;-57
2022/01/21 09:07:19;;;;;;;18.27;7.15;;;;;;;0.56;70.87;102460.81;4985609;28;20423;-56
2022/01/21 09:09:45;;;;;;;20.13;7.22;;;;;;;0.57;70.20;102462.63;4982869;28;20433;-55
2022/01/21 09:12:14;;;;;;;16.58;6.07;;;;;;;0.59;70.53;102455.97;4985132;28;20104;-52
2022/01/21 09:14:41;;;;;;;17.35;5.45;;;;;;;0.60;70.84;102452.63;4988789;28;20105;-55
2022/01/21 09:17:07;;;;;;;16.20;5.90;;;;;;;0.63;70.46;102453.78;4987402;28;20050;-56
2022/01/21 09:19:34;;;;;;;9.80;4.78;;;;;;;0.66;71.06;102442.91;4989499;28;20043;-55
2022/01/21 09:22:02;;;;;;;12.90;5.00;;;;;;;0.70;70.51;102444.91;4977134;28;20062;-55
2022/01/21 09:24:31;;;;;;;10.38;4.47;;;;;;;0.73;70.37;102440.06;4988550;28;20430;-53
2022/01/21 09:27:00;;;;;;;7.68;3.10;;;;;;;0.80;71.21;102437.94;4978182;28;20097;-54
2022/01/21 09:29:26;;;;;;;14.40;3.13;;;;;;;0.82;70.40;102438.97;4984692;28;20560;-56
2022/01/21 09:31:53;;;;;;;9.45;4.15;;;;;;;0.85;70.22;102440.09;4986863;28;20101;-52
2022/01/21 09:34:24;;;;;;;16.75;4.80;;;;;;;0.88;70.24;102444.56;4988496;28;20058;-56
2022/01/21 09:36:51;;;;;;;15.23;5.25;;;;;;;0.90;70.96;102443.00;4989181;28;20077;-56
2022/01/21 09:39:18;;;;;;;16.55;5.53;;;;;;;0.93;70.00;102438.13;4985865;28;20058;-58
2022/01/21 09:41:45;;;;;;;15.63;6.05;;;;;;;0.96;70.50;102432.34;4980921;28;20132;-54
2022/01/21 09:44:15;;;;;;;13.68;5.93;;;;;;;1.00;70.15;102434.38;4985756;28;20580;-57
2022/01/21 09:46:45;;;;;;;20.58;8.60;;;;;;;1.05;70.66;102437.28;4982255;28;20046;-52
2022/01/21 09:49:29;;;;;;;31.73;7.93;;;;;;;1.08;70.12;102424.75;4984959;28;20583;-57
2022/01/21 09:52:00;;;;;;;29.52;7.43;;;;;;;1.13;70.90;102418.31;4985160;28;20046;-56
2022/01/21 09:54:31;;;;;;;39.97;8.70;;;;;;;1.16;70.19;102421.09;4983350;28;20058;-55
2022/01/21 09:56:59;;;;;;;34.58;10.30;;;;;;;1.19;70.27;102426.44;4987819;28;20050;-56
2022/01/21 09:59:29;;;;;;;38.67;10.27;;;;;;;1.22;70.70;102421.53;4983258;28;20054;-56
2022/01/21 10:02:03;;;;;;;25.88;9.25;;;;;;;1.27;70.65;102429.53;4968030;28;20055;-53
2022/01/21 10:04:33;;;;;;;23.88;9.35;;;;;;;1.29;70.37;102428.00;4985225;28;20046;-53
2022/01/21 10:07:01;;;;;;;25.67;8.10;;;;;;;1.31;70.07;102439.19;4985758;28;20054;-54
2022/01/21 10:09:28;;;;;;;26.70;9.07;;;;;;;1.32;70.70;102440.09;4988245;28;20054;-57
2022/01/21 10:11:57;;;;;;;21.60;7.32;;;;;;;1.35;70.72;102437.78;4984223;28;20050;-53
2022/01/21 10:14:26;;;;;;;24.85;9.27;;;;;;;1.37;69.67;102441.31;4985693;28;20307;-58
2022/01/21 10:16:54;;;;;;;20.27;6.68;;;;;;;1.39;70.09;102434.69;4986731;28;20057;-52
2022/01/21 10:19:24;;;;;;;17.05;6.35;;;;;;;1.42;70.09;102429.78;4983982;28;20639;-54
2022/01/21 10:22:02;;;;;;;18.80;6.88;;;;;;;1.45;70.25;102432.56;4984950;28;20057;-52
2022/01/21 10:24:31;;;;;;;18.70;6.53;;;;;;;1.48;69.65;102443.00;4984557;28;20057;-56
2022/01/21 10:26:58;;;;;;;29.45;8.27;;;;;;;1.49;69.62;102437.09;4986847;28;20074;-57
2022/01/21 10:29:39;;;;;;;25.38;8.57;;;;;;;1.50;70.73;102444.00;4986195;28;20057;-56
2022/01/21 10:32:08;;;;;;;24.25;8.05;;;;;;;1.54;69.45;102440.91;4983262;28;20057;-57
2022/01/21 10:34:40;;;;;;;19.13;6.63;;;;;;;1.60;70.01;102431.91;4986307;28;20603;-54
2022/01/21 10:37:30;;;;;;;20.33;7.05;;;;;;;1.62;70.36;102432.91;4988309;28;20050;-53
2022/01/21 10:40:04;;;;;;;25.10;6.70;;;;;;;1.67;70.68;102426.47;4969137;28;20050;-56
2022/01/21 10:42:31;;;;;;;18.25;5.90;;;;;;;1.69;70.43;102429.13;4983762;28;20047;-56
2022/01/21 10:45:00;;;;;;;12.63;4.75;;;;;;;1.71;69.98;102433.56;4981633;28;20050;-56
2022/01/21 10:47:37;;;;;;;;;;;;;;;1.72;70.87;102435.34;4984811;28;20052;-55
2022/01/21 10:50:15;;;;;;;17.65;5.88;;;;;;;1.79;69.96;102427.34;4980730;28;20025;-56
2022/01/21 10:52:46;;;;;;;18.38;5.07;;;;;;;1.87;70.57;102424.44;4978670;28;20042;-56
2022/01/21 10:55:33;;;;;;;19.45;6.55;;;;;;;1.93;71.01;102422.34;4981785;28;20050;-54
2022/01/21 10:58:08;;;;;;;15.80;5.75;;;;;;;2.01;70.26;102415.19;4978755;28;20121;-56
2022/01/21 11:00:37;;;;;;;20.77;6.70;;;;;;;2.09;69.14;102410.66;4978354;28;20501;-56
2022/01/21 11:03:19;;;;;;;15.02;4.72;;;;;;;2.12;69.44;102410.84;4977937;28;20070;-55
2022/01/21 11:05:48;;;;;;;13.13;5.10;;;;;;;2.16;69.84;102407.75;4981049;28;20050;-58
2022/01/21 11:08:17;;;;;;;14.35;5.43;;;;;;;2.21;70.67;102411.50;4978459;28;20069;-55
2022/01/21 11:10:47;;;;;;;15.18;5.40;;;;;;;2.24;69.94;102409.16;4982394;28;20728;-53
2022/01/21 11:13:36;;;;;;;10.75;5.07;;;;;;;2.28;69.88;102411.16;4977549;28;20055;-58
2022/01/21 11:16:17;;;;;;;12.18;4.57;;;;;;;2.33;69.18;102406.31;4970365;28;20054;-55
2022/01/21 11:19:08;;;;;;;17.85;5.25;;;;;;;2.38;70.52;102410.13;4982585;28;20431;-56
2022/01/21 11:21:53;;;;;;;16.42;5.28;;;;;;;2.43;69.16;102402.72;4979249;28;20051;-56
2022/01/21 11:24:22;;;;;;;13.20;5.13;;;;;;;2.50;69.34;102409.19;4982411;28;20394;-54
2022/01/21 11:27:14;;;;;;;13.90;5.50;;;;;;;2.53;69.39;102400.03;4979363;28;20058;-56
2022/01/21 11:29:43;;;;;;;13.52;5.47;;;;;;;2.60;69.58;102395.34;4969089;28;20054;-54
2022/01/21 11:32:12;;;;;;;17.40;6.03;;;;;;;2.62;70.11;102388.66;4974743;28;20050;-56
2022/01/21 11:34:42;;;;;;;19.70;6.65;;;;;;;2.69;70.12;102399.41;4978926;28;20046;-54
2022/01/21 11:37:09;;;;;;;10.70;4.95;;;;;;;2.71;69.97;102384.16;4976545;28;20050;-56
2022/01/21 11:39:36;;;;;;;15.23;5.45;;;;;;;2.74;70.26;102392.06;4977938;28;20050;-53
2022/01/21 11:42:07;;;;;;;14.77;5.25;;;;;;;2.80;69.40;102383.88;4979665;28;20046;-55
2022/01/21 11:44:41;;;;;;;11.50;4.85;;;;;;;2.85;68.86;102381.63;4981994;28;20124;-56
2022/01/21 11:47:27;;;;;;;;;;;;;;;2.82;70.01;102388.34;4981529;28;20450;-55
2022/01/21 11:49:59;;;;;;;9.63;4.40;;;;;;;2.92;68.99;102383.81;4985413;28;19929;-53
2022/01/21 11:52:26;;;;;;;10.82;4.50;;;;;;;2.92;69.99;102383.81;4983346;28;20717;-54
2022/01/21 11:54:53;;;;;;;12.23;4.85;;;;;;;2.95;69.96;102378.91;4985762;28;20050;-52
2022/01/21 11:57:29;;;;;;;;;;;;;;;2.94;69.77;102382.25;4986144;28;20047;-51
2022/01/21 12:00:05;;;;;;;10.18;4.40;;;;;;;2.97;69.68;102376.44;4963624;28;19925;-57
2022/01/21 12:02:35;;;;;;;10.40;5.13;;;;;;;3.00;68.46;102377.53;4981169;28;20062;-55
2022/01/21 12:05:06;;;;;;;11.93;5.05;;;;;;;3.02;68.87;102370.84;4981648;28;20055;-54
2022/01/21 12:07:44;;;;;;;10.90;5.57;;;;;;;3.09;69.22;102367.00;4979818;28;20042;-57
2022/01/21 12:10:20;;;;;;;15.30;5.68;;;;;;;3.14;69.02;102364.75;4979473;28;20458;-52